sensor_id;sensor_type;location;lat;lon;timestamp;P1;durP1;ratioP1;P2;durP2;ratioP2
83663;SDS011;73634;47.068;15.426;2024-01-30T00:00:39;8.80;;;2.75;;
83663;SDS011;73634;47.068;15.426;2024-01-30T00:03:04;7.10;;;2.85;;
83663;SDS011;73634;47.068;15.426;2024-01-30T00:05:30;9.75;;;3.08;;
83663;SDS011;73634;47.068;15.426;2024-01-30T00:07:55;8.40;;;3.10;;
83663;SDS011;73634;47.068;15.426;2024-01-30T00:10:21;8.40;;;3.00;;
83663;SDS011;73634;47.068;15.426;2024-01-30T00:12:46;10.70;;;3.13;;
83663;SDS011;73634;47.068;15.426;2024-01-30T00:18:04;7.82;;;3.13;;
83663;SDS011;73634;47.068;15.426;2024-01-30T00:20:29;8.57;;;2.90;;
83663;SDS011;73634;47.068;15.426;2024-01-30T00:22:54;6.68;;;3.20;;
83663;SDS011;73634;47.068;15.426;2024-01-30T00:25:20;7.15;;;2.42;;
83663;SDS011;73634;47.068;15.426;2024-01-30T00:27:45;9.38;;;3.25;;
83663;SDS011;73634;47.068;15.426;2024-01-30T00:30:11;11.05;;;3.35;;
83663;SDS011;73634;47.068;15.426;2024-01-30T00:32:37;10.70;;;2.67;;
83663;SDS011;73634;47.068;15.426;2024-01-30T00:35:02;8.73;;;3.05;;
83663;SDS011;73634;47.068;15.426;2024-01-30T00:37:28;7.25;;;2.88;;
83663;SDS011;73634;47.068;15.426;2024-01-30T00:42:26;8.90;;;3.15;;
83663;SDS011;73634;47.068;15.426;2024-01-30T00:44:51;5.68;;;2.13;;
83663;SDS011;73634;47.068;15.426;2024-01-30T00:47:16;6.45;;;2.35;;
83663;SDS011;73634;47.068;15.426;2024-01-30T00:49:42;8.40;;;3.00;;
83663;SDS011;73634;47.068;15.426;2024-01-30T00:52:07;8.65;;;3.60;;
83663;SDS011;73634;47.068;15.426;2024-01-30T00:54:33;7.63;;;2.72;;
83663;SDS011;73634;47.068;15.426;2024-01-30T00:56:58;9.70;;;2.97;;
83663;SDS011;73634;47.068;15.426;2024-01-30T00:59:24;11.63;;;3.03;;
83663;SDS011;73634;47.068;15.426;2024-01-30T01:01:49;8.25;;;2.67;;
83663;SDS011;73634;47.068;15.426;2024-01-30T01:04:15;7.40;;;2.90;;
83663;SDS011;73634;47.068;15.426;2024-01-30T01:09:06;8.25;;;3.05;;
83663;SDS011;73634;47.068;15.426;2024-01-30T01:11:32;7.93;;;3.35;;
83663;SDS011;73634;47.068;15.426;2024-01-30T01:13:57;9.85;;;3.53;;
83663;SDS011;73634;47.068;15.426;2024-01-30T01:16:22;8.70;;;4.43;;
83663;SDS011;73634;47.068;15.426;2024-01-30T01:18:48;6.10;;;3.42;;
83663;SDS011;73634;47.068;15.426;2024-01-30T01:21:13;8.50;;;4.35;;
83663;SDS011;73634;47.068;15.426;2024-01-30T01:23:38;8.73;;;3.60;;
83663;SDS011;73634;47.068;15.426;2024-01-30T01:26:04;9.52;;;4.25;;
83663;SDS011;73634;47.068;15.426;2024-01-30T01:28:30;11.80;;;3.70;;
83663;SDS011;73634;47.068;15.426;2024-01-30T01:32:32;7.78;;;3.08;;
83663;SDS011;73634;47.068;15.426;2024-01-30T01:34:57;11.00;;;3.83;;
83663;SDS011;73634;47.068;15.426;2024-01-30T01:37:22;9.13;;;3.38;;
83663;SDS011;73634;47.068;15.426;2024-01-30T01:39:51;7.65;;;2.83;;
83663;SDS011;73634;47.068;15.426;2024-01-30T01:42:17;7.97;;;2.25;;
83663;SDS011;73634;47.068;15.426;2024-01-30T01:44:42;7.35;;;3.03;;
83663;SDS011;73634;47.068;15.426;2024-01-30T01:47:07;7.65;;;2.90;;
83663;SDS011;73634;47.068;15.426;2024-01-30T01:49:33;9.68;;;3.28;;
83663;SDS011;73634;47.068;15.426;2024-01-30T01:51:58;7.68;;;2.58;;
83663;SDS011;73634;47.068;15.426;2024-01-30T01:57:01;8.10;;;3.08;;
83663;SDS011;73634;47.068;15.426;2024-01-30T01:59:26;6.13;;;2.58;;
83663;SDS011;73634;47.068;15.426;2024-01-30T02:01:52;8.95;;;2.92;;
83663;SDS011;73634;47.068;15.426;2024-01-30T02:04:20;7.15;;;3.05;;
83663;SDS011;73634;47.068;15.426;2024-01-30T02:06:46;8.60;;;2.60;;
83663;SDS011;73634;47.068;15.426;2024-01-30T02:09:11;6.15;;;3.17;;
83663;SDS011;73634;47.068;15.426;2024-01-30T02:11:37;9.10;;;2.70;;
83663;SDS011;73634;47.068;15.426;2024-01-30T02:14:03;7.50;;;2.50;;
83663;SDS011;73634;47.068;15.426;2024-01-30T02:16:29;6.95;;;2.80;;
83663;SDS011;73634;47.068;15.426;2024-01-30T02:18:55;7.03;;;2.85;;
83663;SDS011;73634;47.068;15.426;2024-01-30T02:22:26;8.65;;;2.65;;
83663;SDS011;73634;47.068;15.426;2024-01-30T02:24:52;6.40;;;2.40;;
83663;SDS011;73634;47.068;15.426;2024-01-30T02:27:17;7.47;;;2.42;;
83663;SDS011;73634;47.068;15.426;2024-01-30T02:29:43;6.53;;;2.90;;
83663;SDS011;73634;47.068;15.426;2024-01-30T02:32:08;6.47;;;2.40;;
83663;SDS011;73634;47.068;15.426;2024-01-30T02:34:33;10.52;;;2.75;;
83663;SDS011;73634;47.068;15.426;2024-01-30T02:36:59;10.50;;;2.92;;
83663;SDS011;73634;47.068;15.426;2024-01-30T02:39:24;12.18;;;4.13;;
83663;SDS011;73634;47.068;15.426;2024-01-30T02:41:50;12.63;;;3.67;;
83663;SDS011;73634;47.068;15.426;2024-01-30T02:46:52;7.97;;;4.57;;
83663;SDS011;73634;47.068;15.426;2024-01-30T02:49:19;14.57;;;6.10;;
83663;SDS011;73634;47.068;15.426;2024-01-30T02:51:44;8.18;;;5.25;;
83663;SDS011;73634;47.068;15.426;2024-01-30T02:54:10;16.38;;;6.63;;
83663;SDS011;73634;47.068;15.426;2024-01-30T02:56:35;17.20;;;6.45;;
83663;SDS011;73634;47.068;15.426;2024-01-30T02:59:00;16.55;;;6.32;;
83663;SDS011;73634;47.068;15.426;2024-01-30T03:01:26;11.60;;;5.80;;
83663;SDS011;73634;47.068;15.426;2024-01-30T03:03:51;17.73;;;6.30;;
83663;SDS011;73634;47.068;15.426;2024-01-30T03:06:17;13.57;;;6.55;;
83663;SDS011;73634;47.068;15.426;2024-01-30T03:11:20;14.60;;;6.80;;
83663;SDS011;73634;47.068;15.426;2024-01-30T03:13:46;16.20;;;6.10;;
83663;SDS011;73634;47.068;15.426;2024-01-30T03:16:11;12.07;;;5.55;;
83663;SDS011;73634;47.068;15.426;2024-01-30T03:18:36;17.30;;;6.57;;
83663;SDS011;73634;47.068;15.426;2024-01-30T03:21:02;14.30;;;6.05;;
83663;SDS011;73634;47.068;15.426;2024-01-30T03:23:27;17.20;;;6.55;;
83663;SDS011;73634;47.068;15.426;2024-01-30T03:25:53;17.85;;;6.47;;
83663;SDS011;73634;47.068;15.426;2024-01-30T03:28:18;14.07;;;5.60;;
83663;SDS011;73634;47.068;15.426;2024-01-30T03:30:43;15.13;;;6.35;;
83663;SDS011;73634;47.068;15.426;2024-01-30T03:33:09;19.58;;;6.43;;
83663;SDS011;73634;47.068;15.426;2024-01-30T03:37:32;16.42;;;6.65;;
83663;SDS011;73634;47.068;15.426;2024-01-30T03:39:57;14.13;;;5.85;;
83663;SDS011;73634;47.068;15.426;2024-01-30T03:42:23;16.63;;;6.70;;
83663;SDS011;73634;47.068;15.426;2024-01-30T03:44:48;14.80;;;5.68;;
83663;SDS011;73634;47.068;15.426;2024-01-30T03:47:16;13.48;;;5.88;;
83663;SDS011;73634;47.068;15.426;2024-01-30T03:49:42;12.93;;;6.40;;
83663;SDS011;73634;47.068;15.426;2024-01-30T03:52:07;13.07;;;6.40;;
83663;SDS011;73634;47.068;15.426;2024-01-30T03:54:32;18.88;;;6.88;;
83663;SDS011;73634;47.068;15.426;2024-01-30T03:56:58;15.07;;;6.95;;
83663;SDS011;73634;47.068;15.426;2024-01-30T04:02:00;14.88;;;5.85;;
83663;SDS011;73634;47.068;15.426;2024-01-30T04:04:25;14.13;;;5.53;;
83663;SDS011;73634;47.068;15.426;2024-01-30T04:06:50;19.52;;;7.25;;
83663;SDS011;73634;47.068;15.426;2024-01-30T04:09:16;15.73;;;7.07;;
83663;SDS011;73634;47.068;15.426;2024-01-30T04:11:41;15.55;;;6.38;;
83663;SDS011;73634;47.068;15.426;2024-01-30T04:14:07;13.55;;;6.05;;
83663;SDS011;73634;47.068;15.426;2024-01-30T04:16:33;15.13;;;7.75;;
83663;SDS011;73634;47.068;15.426;2024-01-30T04:18:58;16.17;;;6.43;;
83663;SDS011;73634;47.068;15.426;2024-01-30T04:21:24;15.18;;;5.88;;
83663;SDS011;73634;47.068;15.426;2024-01-30T04:26:21;13.45;;;6.20;;
83663;SDS011;73634;47.068;15.426;2024-01-30T04:28:46;13.45;;;6.22;;
83663;SDS011;73634;47.068;15.426;2024-01-30T04:31:12;16.08;;;7.07;;
83663;SDS011;73634;47.068;15.426;2024-01-30T04:33:37;16.98;;;5.93;;
83663;SDS011;73634;47.068;15.426;2024-01-30T04:36:03;17.08;;;5.95;;
83663;SDS011;73634;47.068;15.426;2024-01-30T04:38:28;14.30;;;6.22;;
83663;SDS011;73634;47.068;15.426;2024-01-30T04:40:54;8.95;;;3.40;;
83663;SDS011;73634;47.068;15.426;2024-01-30T04:43:19;8.00;;;3.95;;
83663;SDS011;73634;47.068;15.426;2024-01-30T04:45:45;9.45;;;3.65;;
83663;SDS011;73634;47.068;15.426;2024-01-30T04:48:10;8.20;;;3.25;;
83663;SDS011;73634;47.068;15.426;2024-01-30T04:51:46;11.57;;;3.75;;
83663;SDS011;73634;47.068;15.426;2024-01-30T04:54:12;5.32;;;2.25;;
83663;SDS011;73634;47.068;15.426;2024-01-30T04:56:37;9.15;;;2.90;;
83663;SDS011;73634;47.068;15.426;2024-01-30T04:59:04;7.32;;;3.15;;
83663;SDS011;73634;47.068;15.426;2024-01-30T05:01:29;6.35;;;3.13;;
83663;SDS011;73634;47.068;15.426;2024-01-30T05:03:55;6.25;;;2.50;;
83663;SDS011;73634;47.068;15.426;2024-01-30T05:06:24;7.57;;;2.65;;
83663;SDS011;73634;47.068;15.426;2024-01-30T05:08:50;8.30;;;3.22;;
83663;SDS011;73634;47.068;15.426;2024-01-30T05:11:15;13.57;;;4.25;;
83663;SDS011;73634;47.068;15.426;2024-01-30T05:13:41;8.80;;;3.80;;
83663;SDS011;73634;47.068;15.426;2024-01-30T05:17:28;6.55;;;2.97;;
83663;SDS011;73634;47.068;15.426;2024-01-30T05:19:53;11.40;;;3.90;;
83663;SDS011;73634;47.068;15.426;2024-01-30T05:22:18;9.20;;;3.10;;
83663;SDS011;73634;47.068;15.426;2024-01-30T05:24:44;12.98;;;3.10;;
83663;SDS011;73634;47.068;15.426;2024-01-30T05:27:09;10.48;;;3.40;;
83663;SDS011;73634;47.068;15.426;2024-01-30T05:29:41;5.90;;;2.83;;
83663;SDS011;73634;47.068;15.426;2024-01-30T05:32:06;8.10;;;3.13;;
83663;SDS011;73634;47.068;15.426;2024-01-30T05:34:32;6.57;;;3.20;;
83663;SDS011;73634;47.068;15.426;2024-01-30T05:36:58;8.63;;;3.08;;
83663;SDS011;73634;47.068;15.426;2024-01-30T05:39:23;6.07;;;2.63;;
83663;SDS011;73634;47.068;15.426;2024-01-30T05:43:39;4.95;;;2.47;;
83663;SDS011;73634;47.068;15.426;2024-01-30T05:46:06;7.10;;;2.60;;
83663;SDS011;73634;47.068;15.426;2024-01-30T05:48:31;6.07;;;2.35;;
83663;SDS011;73634;47.068;15.426;2024-01-30T05:50:57;11.02;;;3.00;;
83663;SDS011;73634;47.068;15.426;2024-01-30T05:53:22;9.73;;;3.05;;
83663;SDS011;73634;47.068;15.426;2024-01-30T05:55:47;8.75;;;3.30;;
83663;SDS011;73634;47.068;15.426;2024-01-30T05:58:13;15.98;;;3.45;;
83663;SDS011;73634;47.068;15.426;2024-01-30T06:00:38;8.35;;;3.25;;
83663;SDS011;73634;47.068;15.426;2024-01-30T06:03:04;5.18;;;2.50;;
83663;SDS011;73634;47.068;15.426;2024-01-30T06:08:06;6.13;;;2.63;;
83663;SDS011;73634;47.068;15.426;2024-01-30T06:10:34;6.47;;;2.35;;
83663;SDS011;73634;47.068;15.426;2024-01-30T06:13:00;7.22;;;3.15;;
83663;SDS011;73634;47.068;15.426;2024-01-30T06:15:25;5.20;;;2.17;;
83663;SDS011;73634;47.068;15.426;2024-01-30T06:17:51;9.32;;;2.88;;
83663;SDS011;73634;47.068;15.426;2024-01-30T06:20:16;12.40;;;2.95;;
83663;SDS011;73634;47.068;15.426;2024-01-30T06:22:43;9.13;;;2.88;;
83663;SDS011;73634;47.068;15.426;2024-01-30T06:25:08;9.70;;;2.38;;
83663;SDS011;73634;47.068;15.426;2024-01-30T06:27:33;9.23;;;2.72;;
83663;SDS011;73634;47.068;15.426;2024-01-30T06:29:59;8.75;;;2.83;;
83663;SDS011;73634;47.068;15.426;2024-01-30T06:34:17;7.78;;;2.60;;
83663;SDS011;73634;47.068;15.426;2024-01-30T06:36:44;6.53;;;2.50;;
83663;SDS011;73634;47.068;15.426;2024-01-30T06:39:09;21.48;;;6.93;;
83663;SDS011;73634;47.068;15.426;2024-01-30T06:41:34;20.92;;;8.75;;
83663;SDS011;73634;47.068;15.426;2024-01-30T06:44:02;9.05;;;2.55;;
83663;SDS011;73634;47.068;15.426;2024-01-30T06:46:28;8.88;;;3.53;;
83663;SDS011;73634;47.068;15.426;2024-01-30T06:48:53;8.93;;;2.97;;
83663;SDS011;73634;47.068;15.426;2024-01-30T06:51:19;8.05;;;2.95;;
83663;SDS011;73634;47.068;15.426;2024-01-30T06:53:44;8.82;;;3.45;;
83663;SDS011;73634;47.068;15.426;2024-01-30T06:58:26;10.60;;;3.80;;
83663;SDS011;73634;47.068;15.426;2024-01-30T07:00:51;12.18;;;3.75;;
83663;SDS011;73634;47.068;15.426;2024-01-30T07:03:17;13.35;;;3.83;;
83663;SDS011;73634;47.068;15.426;2024-01-30T07:05:42;5.60;;;3.33;;
83663;SDS011;73634;47.068;15.426;2024-01-30T07:08:07;9.60;;;2.55;;
83663;SDS011;73634;47.068;15.426;2024-01-30T07:10:33;13.18;;;4.00;;
83663;SDS011;73634;47.068;15.426;2024-01-30T07:13:00;9.25;;;3.47;;
83663;SDS011;73634;47.068;15.426;2024-01-30T07:15:25;9.25;;;4.00;;
83663;SDS011;73634;47.068;15.426;2024-01-30T07:17:51;10.18;;;3.95;;
83663;SDS011;73634;47.068;15.426;2024-01-30T07:20:16;10.90;;;3.90;;
83663;SDS011;73634;47.068;15.426;2024-01-30T07:24:52;12.02;;;4.20;;
83663;SDS011;73634;47.068;15.426;2024-01-30T07:27:17;8.80;;;4.10;;
83663;SDS011;73634;47.068;15.426;2024-01-30T07:29:43;7.30;;;3.63;;
83663;SDS011;73634;47.068;15.426;2024-01-30T07:32:09;11.85;;;4.18;;
83663;SDS011;73634;47.068;15.426;2024-01-30T07:34:34;13.93;;;4.20;;
83663;SDS011;73634;47.068;15.426;2024-01-30T07:37:01;11.30;;;3.97;;
83663;SDS011;73634;47.068;15.426;2024-01-30T07:39:26;12.93;;;4.88;;
83663;SDS011;73634;47.068;15.426;2024-01-30T07:41:52;14.18;;;5.70;;
83663;SDS011;73634;47.068;15.426;2024-01-30T07:44:17;11.82;;;4.75;;
83663;SDS011;73634;47.068;15.426;2024-01-30T07:46:43;16.05;;;5.32;;
83663;SDS011;73634;47.068;15.426;2024-01-30T07:50:48;10.35;;;4.00;;
83663;SDS011;73634;47.068;15.426;2024-01-30T07:53:13;8.85;;;4.07;;
83663;SDS011;73634;47.068;15.426;2024-01-30T07:55:45;16.02;;;8.63;;
83663;SDS011;73634;47.068;15.426;2024-01-30T07:58:11;22.08;;;10.98;;
83663;SDS011;73634;47.068;15.426;2024-01-30T08:00:37;18.67;;;10.00;;
83663;SDS011;73634;47.068;15.426;2024-01-30T08:03:03;18.13;;;8.88;;
83663;SDS011;73634;47.068;15.426;2024-01-30T08:05:29;22.10;;;11.93;;
83663;SDS011;73634;47.068;15.426;2024-01-30T08:07:54;19.90;;;11.23;;
83663;SDS011;73634;47.068;15.426;2024-01-30T08:10:19;17.17;;;10.02;;
83663;SDS011;73634;47.068;15.426;2024-01-30T08:15:28;15.13;;;9.13;;
83663;SDS011;73634;47.068;15.426;2024-01-30T08:17:54;20.40;;;11.73;;
83663;SDS011;73634;47.068;15.426;2024-01-30T08:20:23;17.52;;;12.63;;
83663;SDS011;73634;47.068;15.426;2024-01-30T08:22:49;20.88;;;12.13;;
83663;SDS011;73634;47.068;15.426;2024-01-30T08:25:14;22.27;;;12.90;;
83663;SDS011;73634;47.068;15.426;2024-01-30T08:27:39;30.77;;;14.05;;
83663;SDS011;73634;47.068;15.426;2024-01-30T08:30:08;20.35;;;12.95;;
83663;SDS011;73634;47.068;15.426;2024-01-30T08:32:34;22.48;;;12.15;;
83663;SDS011;73634;47.068;15.426;2024-01-30T08:34:59;21.25;;;13.10;;
83663;SDS011;73634;47.068;15.426;2024-01-30T08:37:25;19.58;;;11.68;;
83663;SDS011;73634;47.068;15.426;2024-01-30T08:41:26;25.63;;;12.05;;
83663;SDS011;73634;47.068;15.426;2024-01-30T08:43:52;19.92;;;10.50;;
83663;SDS011;73634;47.068;15.426;2024-01-30T08:46:18;22.73;;;12.40;;
83663;SDS011;73634;47.068;15.426;2024-01-30T08:48:43;24.05;;;11.70;;
83663;SDS011;73634;47.068;15.426;2024-01-30T08:51:09;21.05;;;12.48;;
83663;SDS011;73634;47.068;15.426;2024-01-30T08:53:34;21.02;;;10.30;;
83663;SDS011;73634;47.068;15.426;2024-01-30T08:56:01;21.67;;;12.48;;
83663;SDS011;73634;47.068;15.426;2024-01-30T08:58:27;23.15;;;11.07;;
83663;SDS011;73634;47.068;15.426;2024-01-30T09:00:53;16.75;;;10.77;;
83663;SDS011;73634;47.068;15.426;2024-01-30T09:05:38;19.48;;;11.30;;
83663;SDS011;73634;47.068;15.426;2024-01-30T09:08:03;25.25;;;13.82;;
83663;SDS011;73634;47.068;15.426;2024-01-30T09:10:28;22.67;;;13.18;;
83663;SDS011;73634;47.068;15.426;2024-01-30T09:12:54;18.77;;;10.85;;
83663;SDS011;73634;47.068;15.426;2024-01-30T09:15:22;23.50;;;13.18;;
83663;SDS011;73634;47.068;15.426;2024-01-30T09:17:47;15.07;;;9.50;;
83663;SDS011;73634;47.068;15.426;2024-01-30T09:20:13;18.63;;;10.80;;
83663;SDS011;73634;47.068;15.426;2024-01-30T09:22:38;17.35;;;10.98;;
83663;SDS011;73634;47.068;15.426;2024-01-30T09:25:04;18.45;;;10.77;;
83663;SDS011;73634;47.068;15.426;2024-01-30T09:27:29;17.13;;;10.75;;
83663;SDS011;73634;47.068;15.426;2024-01-30T09:31:03;18.05;;;10.70;;
83663;SDS011;73634;47.068;15.426;2024-01-30T09:33:29;16.92;;;10.23;;
83663;SDS011;73634;47.068;15.426;2024-01-30T09:35:54;15.30;;;9.48;;
83663;SDS011;73634;47.068;15.426;2024-01-30T09:38:19;21.33;;;10.68;;
83663;SDS011;73634;47.068;15.426;2024-01-30T09:40:45;17.90;;;11.45;;
83663;SDS011;73634;47.068;15.426;2024-01-30T09:43:18;18.88;;;10.38;;
83663;SDS011;73634;47.068;15.426;2024-01-30T09:45:47;19.52;;;10.70;;
83663;SDS011;73634;47.068;15.426;2024-01-30T09:48:15;15.20;;;9.60;;
83663;SDS011;73634;47.068;15.426;2024-01-30T09:50:40;17.90;;;11.07;;
83663;SDS011;73634;47.068;15.426;2024-01-30T09:55:30;24.10;;;13.93;;
83663;SDS011;73634;47.068;15.426;2024-01-30T09:57:55;19.95;;;13.15;;
83663;SDS011;73634;47.068;15.426;2024-01-30T10:00:21;16.33;;;11.20;;
83663;SDS011;73634;47.068;15.426;2024-01-30T10:02:51;20.27;;;11.13;;
83663;SDS011;73634;47.068;15.426;2024-01-30T10:05:17;19.45;;;11.95;;
83663;SDS011;73634;47.068;15.426;2024-01-30T10:07:53;14.88;;;10.25;;
83663;SDS011;73634;47.068;15.426;2024-01-30T10:10:21;20.65;;;12.25;;
83663;SDS011;73634;47.068;15.426;2024-01-30T10:12:48;20.98;;;10.20;;
83663;SDS011;73634;47.068;15.426;2024-01-30T10:15:13;15.70;;;10.18;;
83663;SDS011;73634;47.068;15.426;2024-01-30T10:20:13;24.13;;;11.88;;
83663;SDS011;73634;47.068;15.426;2024-01-30T10:22:40;27.33;;;13.45;;
83663;SDS011;73634;47.068;15.426;2024-01-30T10:25:09;24.42;;;12.52;;
83663;SDS011;73634;47.068;15.426;2024-01-30T10:27:35;19.13;;;12.23;;
83663;SDS011;73634;47.068;15.426;2024-01-30T10:30:00;19.60;;;11.82;;
83663;SDS011;73634;47.068;15.426;2024-01-30T10:32:25;17.20;;;10.80;;
83663;SDS011;73634;47.068;15.426;2024-01-30T10:34:52;15.00;;;10.38;;
83663;SDS011;73634;47.068;15.426;2024-01-30T10:37:17;26.85;;;13.75;;
83663;SDS011;73634;47.068;15.426;2024-01-30T10:39:44;19.85;;;12.00;;
83663;SDS011;73634;47.068;15.426;2024-01-30T10:45:29;17.92;;;10.55;;
83663;SDS011;73634;47.068;15.426;2024-01-30T10:47:44;14.52;;;9.45;;
83663;SDS011;73634;47.068;15.426;2024-01-30T10:50:14;17.95;;;10.57;;
83663;SDS011;73634;47.068;15.426;2024-01-30T10:52:40;20.02;;;12.52;;
83663;SDS011;73634;47.068;15.426;2024-01-30T10:55:07;25.30;;;12.40;;
83663;SDS011;73634;47.068;15.426;2024-01-30T10:57:34;18.48;;;11.05;;
83663;SDS011;73634;47.068;15.426;2024-01-30T11:02:41;18.08;;;10.50;;
83663;SDS011;73634;47.068;15.426;2024-01-30T11:05:09;20.33;;;11.43;;
83663;SDS011;73634;47.068;15.426;2024-01-30T11:09:30;16.88;;;10.93;;
83663;SDS011;73634;47.068;15.426;2024-01-30T11:12:01;16.98;;;10.68;;
83663;SDS011;73634;47.068;15.426;2024-01-30T11:14:30;17.10;;;10.85;;
83663;SDS011;73634;47.068;15.426;2024-01-30T11:16:59;19.70;;;10.40;;
83663;SDS011;73634;47.068;15.426;2024-01-30T11:19:30;21.67;;;12.32;;
83663;SDS011;73634;47.068;15.426;2024-01-30T11:21:56;13.65;;;7.53;;
83663;SDS011;73634;47.068;15.426;2024-01-30T11:24:22;18.85;;;11.60;;
83663;SDS011;73634;47.068;15.426;2024-01-30T11:26:55;24.83;;;11.52;;
83663;SDS011;73634;47.068;15.426;2024-01-30T11:29:24;16.50;;;10.48;;
83663;SDS011;73634;47.068;15.426;2024-01-30T11:31:54;14.40;;;9.05;;
83663;SDS011;73634;47.068;15.426;2024-01-30T11:35:26;16.13;;;9.35;;
83663;SDS011;73634;47.068;15.426;2024-01-30T11:37:52;13.93;;;9.95;;
83663;SDS011;73634;47.068;15.426;2024-01-30T11:40:19;15.20;;;10.85;;
83663;SDS011;73634;47.068;15.426;2024-01-30T11:42:44;15.20;;;9.30;;
83663;SDS011;73634;47.068;15.426;2024-01-30T11:45:12;13.93;;;9.98;;
83663;SDS011;73634;47.068;15.426;2024-01-30T11:47:37;16.38;;;9.02;;
83663;SDS011;73634;47.068;15.426;2024-01-30T11:50:04;16.08;;;8.45;;
83663;SDS011;73634;47.068;15.426;2024-01-30T11:52:31;14.02;;;10.65;;
83663;SDS011;73634;47.068;15.426;2024-01-30T11:54:58;15.75;;;9.80;;
83663;SDS011;73634;47.068;15.426;2024-01-30T12:00:13;24.65;;;10.15;;
83663;SDS011;73634;47.068;15.426;2024-01-30T12:02:52;17.35;;;9.30;;
83663;SDS011;73634;47.068;15.426;2024-01-30T12:05:22;18.90;;;9.32;;
83663;SDS011;73634;47.068;15.426;2024-01-30T12:07:48;16.27;;;10.50;;
83663;SDS011;73634;47.068;15.426;2024-01-30T12:10:14;16.13;;;8.80;;
83663;SDS011;73634;47.068;15.426;2024-01-30T12:12:44;19.50;;;9.32;;
83663;SDS011;73634;47.068;15.426;2024-01-30T12:15:11;14.75;;;8.77;;
83663;SDS011;73634;47.068;15.426;2024-01-30T12:17:37;13.85;;;7.72;;
83663;SDS011;73634;47.068;15.426;2024-01-30T12:20:06;13.52;;;8.40;;
83663;SDS011;73634;47.068;15.426;2024-01-30T12:24:19;13.35;;;8.68;;
83663;SDS011;73634;47.068;15.426;2024-01-30T12:26:44;15.05;;;9.30;;
83663;SDS011;73634;47.068;15.426;2024-01-30T12:29:10;13.68;;;8.77;;
83663;SDS011;73634;47.068;15.426;2024-01-30T12:31:35;14.45;;;9.15;;
83663;SDS011;73634;47.068;15.426;2024-01-30T12:34:01;11.68;;;8.10;;
83663;SDS011;73634;47.068;15.426;2024-01-30T12:36:26;14.68;;;9.38;;
83663;SDS011;73634;47.068;15.426;2024-01-30T12:38:57;15.52;;;9.48;;
83663;SDS011;73634;47.068;15.426;2024-01-30T12:41:30;11.77;;;8.23;;
83663;SDS011;73634;47.068;15.426;2024-01-30T12:43:57;16.40;;;9.02;;
83663;SDS011;73634;47.068;15.426;2024-01-30T12:48:45;16.83;;;9.63;;
83663;SDS011;73634;47.068;15.426;2024-01-30T12:51:10;15.85;;;9.07;;
83663;SDS011;73634;47.068;15.426;2024-01-30T12:53:36;15.10;;;8.95;;
83663;SDS011;73634;47.068;15.426;2024-01-30T12:56:01;14.80;;;7.22;;
83663;SDS011;73634;47.068;15.426;2024-01-30T12:58:27;13.70;;;7.90;;
83663;SDS011;73634;47.068;15.426;2024-01-30T13:01:01;13.15;;;8.00;;
83663;SDS011;73634;47.068;15.426;2024-01-30T13:03:27;16.67;;;8.60;;
83663;SDS011;73634;47.068;15.426;2024-01-30T13:05:52;16.40;;;7.75;;
83663;SDS011;73634;47.068;15.426;2024-01-30T13:08:18;13.25;;;7.18;;
83663;SDS011;73634;47.068;15.426;2024-01-30T13:13:13;13.27;;;8.30;;
83663;SDS011;73634;47.068;15.426;2024-01-30T13:15:39;15.38;;;8.10;;
83663;SDS011;73634;47.068;15.426;2024-01-30T13:18:04;14.75;;;8.25;;
83663;SDS011;73634;47.068;15.426;2024-01-30T13:20:31;22.45;;;8.30;;
83663;SDS011;73634;47.068;15.426;2024-01-30T13:22:56;12.88;;;7.57;;
83663;SDS011;73634;47.068;15.426;2024-01-30T13:25:22;13.75;;;8.68;;
83663;SDS011;73634;47.068;15.426;2024-01-30T13:27:47;13.40;;;7.65;;
83663;SDS011;73634;47.068;15.426;2024-01-30T13:30:13;14.57;;;7.97;;
83663;SDS011;73634;47.068;15.426;2024-01-30T13:32:39;17.08;;;7.68;;
83663;SDS011;73634;47.068;15.426;2024-01-30T13:37:32;11.70;;;6.53;;
83663;SDS011;73634;47.068;15.426;2024-01-30T13:39:57;15.18;;;7.13;;
83663;SDS011;73634;47.068;15.426;2024-01-30T13:42:22;10.40;;;5.93;;
83663;SDS011;73634;47.068;15.426;2024-01-30T13:44:48;13.80;;;7.07;;
83663;SDS011;73634;47.068;15.426;2024-01-30T13:47:14;12.35;;;6.80;;
83663;SDS011;73634;47.068;15.426;2024-01-30T13:49:39;12.65;;;6.13;;
83663;SDS011;73634;47.068;15.426;2024-01-30T13:52:04;10.20;;;5.90;;
83663;SDS011;73634;47.068;15.426;2024-01-30T13:54:30;12.43;;;7.72;;
83663;SDS011;73634;47.068;15.426;2024-01-30T13:56:56;12.57;;;7.18;;
83663;SDS011;73634;47.068;15.426;2024-01-30T13:59:22;12.75;;;6.55;;
83663;SDS011;73634;47.068;15.426;2024-01-30T14:03:57;12.15;;;7.57;;
83663;SDS011;73634;47.068;15.426;2024-01-30T14:06:22;13.70;;;7.20;;
83663;SDS011;73634;47.068;15.426;2024-01-30T14:08:48;13.13;;;6.63;;
83663;SDS011;73634;47.068;15.426;2024-01-30T14:11:13;13.35;;;7.30;;
83663;SDS011;73634;47.068;15.426;2024-01-30T14:13:38;14.27;;;6.72;;
83663;SDS011;73634;47.068;15.426;2024-01-30T14:16:04;16.15;;;7.18;;
83663;SDS011;73634;47.068;15.426;2024-01-30T14:18:30;18.63;;;9.13;;
83663;SDS011;73634;47.068;15.426;2024-01-30T14:20:55;19.88;;;9.88;;
83663;SDS011;73634;47.068;15.426;2024-01-30T14:23:21;12.95;;;8.55;;
83663;SDS011;73634;47.068;15.426;2024-01-30T14:25:46;17.80;;;8.63;;
83663;SDS011;73634;47.068;15.426;2024-01-30T14:29:38;12.98;;;6.95;;
83663;SDS011;73634;47.068;15.426;2024-01-30T14:32:04;14.65;;;9.15;;
83663;SDS011;73634;47.068;15.426;2024-01-30T14:34:30;14.07;;;9.18;;
83663;SDS011;73634;47.068;15.426;2024-01-30T14:36:55;18.50;;;8.75;;
83663;SDS011;73634;47.068;15.426;2024-01-30T14:39:21;16.30;;;8.55;;
83663;SDS011;73634;47.068;15.426;2024-01-30T14:41:47;12.82;;;7.60;;
83663;SDS011;73634;47.068;15.426;2024-01-30T14:44:12;14.40;;;8.25;;
83663;SDS011;73634;47.068;15.426;2024-01-30T14:46:39;15.80;;;8.75;;
83663;SDS011;73634;47.068;15.426;2024-01-30T14:49:04;21.25;;;9.82;;
83663;SDS011;73634;47.068;15.426;2024-01-30T14:52:35;13.25;;;7.50;;
83663;SDS011;73634;47.068;15.426;2024-01-30T14:55:01;19.42;;;9.07;;
83663;SDS011;73634;47.068;15.426;2024-01-30T14:57:27;11.73;;;8.38;;
83663;SDS011;73634;47.068;15.426;2024-01-30T14:59:53;14.10;;;8.18;;
83663;SDS011;73634;47.068;15.426;2024-01-30T15:02:18;16.35;;;8.88;;
83663;SDS011;73634;47.068;15.426;2024-01-30T15:04:43;14.02;;;8.80;;
83663;SDS011;73634;47.068;15.426;2024-01-30T15:07:09;13.57;;;6.82;;
83663;SDS011;73634;47.068;15.426;2024-01-30T15:09:34;13.18;;;7.40;;
83663;SDS011;73634;47.068;15.426;2024-01-30T15:12:00;12.65;;;5.95;;
83663;SDS011;73634;47.068;15.426;2024-01-30T15:16:59;12.05;;;5.88;;
83663;SDS011;73634;47.068;15.426;2024-01-30T15:19:24;15.38;;;6.95;;
83663;SDS011;73634;47.068;15.426;2024-01-30T15:21:51;12.35;;;5.60;;
83663;SDS011;73634;47.068;15.426;2024-01-30T15:24:16;13.93;;;6.47;;
83663;SDS011;73634;47.068;15.426;2024-01-30T15:26:43;17.00;;;6.65;;
83663;SDS011;73634;47.068;15.426;2024-01-30T15:29:08;16.67;;;7.15;;
83663;SDS011;73634;47.068;15.426;2024-01-30T15:31:33;11.27;;;5.72;;
83663;SDS011;73634;47.068;15.426;2024-01-30T15:33:59;18.45;;;6.03;;
83663;SDS011;73634;47.068;15.426;2024-01-30T15:36:24;11.93;;;6.82;;